createdAt,value
2018-11-02T00:01:52.074Z,85.98
2018-11-02T00:04:20.136Z,86.35
2018-11-02T00:06:48.254Z,85.87
2018-11-02T00:09:16.426Z,85.56
2018-11-02T00:11:44.462Z,85.50
2018-11-02T00:14:12.609Z,85.43
2018-11-02T00:16:40.633Z,85.56
2018-11-02T00:19:08.721Z,85.55
2018-11-02T00:21:36.772Z,85.89
2018-11-02T00:24:05.062Z,85.25
2018-11-02T00:26:33.107Z,85.28
2018-11-02T00:29:01.229Z,85.30
2018-11-02T00:31:29.321Z,85.42
2018-11-02T00:33:57.481Z,85.50
2018-11-02T00:36:25.538Z,84.59
2018-11-02T00:38:53.682Z,85.10
2018-11-02T00:41:21.685Z,85.45
2018-11-02T00:43:50.192Z,85.28
2018-11-02T00:46:18.257Z,84.80
2018-11-02T00:48:46.327Z,85.50
2018-11-02T00:51:14.319Z,84.95
2018-11-02T00:53:42.333Z,85.04
2018-11-02T00:56:10.296Z,85.17
2018-11-02T00:58:38.869Z,84.67
2018-11-02T01:01:07.052Z,85.23
2018-11-02T01:03:35.242Z,84.64
2018-11-02T01:06:03.489Z,84.64
2018-11-02T01:08:31.697Z,84.44
2018-11-02T01:10:59.804Z,84.28
2018-11-02T01:13:27.922Z,84.22
2018-11-02T01:15:56.091Z,84.72
2018-11-02T01:18:24.181Z,83.79
2018-11-02T01:20:52.236Z,83.73
2018-11-02T01:23:20.446Z,82.97
2018-11-02T01:25:48.426Z,82.86
2018-11-02T01:28:16.385Z,82.53
2018-11-02T01:30:44.468Z,82.77
2018-11-02T01:33:12.444Z,82.31
2018-11-02T01:35:40.537Z,82.56
2018-11-02T01:38:08.648Z,82.14
2018-11-02T01:40:36.873Z,82.72
2018-11-02T01:43:05.749Z,82.51
2018-11-02T01:45:33.821Z,82.34
2018-11-02T01:48:01.751Z,82.75
2018-11-02T01:50:29.807Z,82.68
2018-11-02T01:52:57.834Z,83.50
2018-11-02T01:55:25.968Z,83.26
2018-11-02T01:57:53.978Z,82.83
2018-11-02T02:00:21.987Z,83.23
2018-11-02T02:02:50.034Z,83.03
2018-11-02T02:05:18.190Z,83.02
2018-11-02T02:07:46.272Z,83.70
2018-11-02T02:10:14.542Z,84.02
2018-11-02T02:12:42.631Z,84.97
2018-11-02T02:15:11.372Z,84.71
2018-11-02T02:17:39.487Z,84.87
2018-11-02T02:20:08.092Z,84.82
2018-11-02T02:22:36.202Z,84.37
2018-11-02T02:25:04.452Z,83.82
2018-11-02T02:27:36.207Z,83.59
2018-11-02T02:30:05.927Z,83.72
2018-11-02T02:32:34.070Z,83.94
2018-11-02T02:35:02.072Z,83.12
2018-11-02T02:37:30.162Z,83.72
2018-11-02T02:39:58.218Z,84.11
2018-11-02T02:42:26.201Z,83.96
2018-11-02T02:44:54.241Z,83.92
2018-11-02T02:47:22.221Z,84.69
2018-11-02T02:49:50.572Z,84.86
2018-11-02T02:52:18.721Z,85.11
2018-11-02T02:54:46.746Z,84.93
2018-11-02T02:57:14.866Z,85.40
2018-11-02T02:59:43.086Z,85.65
2018-11-02T03:02:11.356Z,85.73
2018-11-02T03:04:39.457Z,85.93
2018-11-02T03:07:07.477Z,86.19
2018-11-02T03:09:35.581Z,86.36
2018-11-02T03:12:03.662Z,86.34
2018-11-02T03:14:31.740Z,86.34
2018-11-02T03:16:59.807Z,85.88
2018-11-02T03:19:27.817Z,85.86
2018-11-02T03:21:55.916Z,85.46
2018-11-02T03:24:23.887Z,85.98
2018-11-02T03:26:51.924Z,85.47
2018-11-02T03:29:20.031Z,84.67
2018-11-02T03:31:48.114Z,84.57
2018-11-02T03:34:16.217Z,84.03
2018-11-02T03:36:44.376Z,83.65
2018-11-02T03:39:13.063Z,82.62
2018-11-02T03:41:41.681Z,82.16
2018-11-02T03:44:10.667Z,82.13
2018-11-02T03:46:39.061Z,81.75
2018-11-02T03:49:07.311Z,81.35
2018-11-02T03:51:35.360Z,81.49
2018-11-02T03:54:03.346Z,81.16
2018-11-02T03:56:31.421Z,80.96
2018-11-02T03:58:59.461Z,80.91
2018-11-02T04:01:27.565Z,81.27
2018-11-02T04:03:55.631Z,80.97
2018-11-02T04:06:23.706Z,81.13
2018-11-02T04:08:51.686Z,81.09
2018-11-02T04:11:19.781Z,81.23
2018-11-02T04:13:47.796Z,80.79
2018-11-02T04:16:15.936Z,81.12
2018-11-02T04:18:43.996Z,80.92
2018-11-02T04:21:12.079Z,80.95
2018-11-02T04:23:40.101Z,81.09
2018-11-02T04:26:08.206Z,81.22
2018-11-02T04:28:36.196Z,81.30
2018-11-02T04:31:04.385Z,80.83
2018-11-02T04:33:32.377Z,81.26
2018-11-02T04:36:00.422Z,80.63
2018-11-02T04:38:28.537Z,80.98
2018-11-02T04:40:56.626Z,80.83
2018-11-02T04:43:25.057Z,80.58
2018-11-02T04:45:53.125Z,80.69
2018-11-02T04:48:21.097Z,79.86
2018-11-02T04:50:49.168Z,79.67
2018-11-02T04:53:17.142Z,79.23
2018-11-02T04:55:45.181Z,79.53
2018-11-02T04:58:13.273Z,79.68
2018-11-02T05:00:41.302Z,79.64
2018-11-02T05:03:09.387Z,79.46
2018-11-02T05:05:37.411Z,79.43
2018-11-02T05:08:05.480Z,79.42
2018-11-02T05:10:33.606Z,78.82
2018-11-02T05:13:01.701Z,79.72
2018-11-02T05:15:29.749Z,79.56
2018-11-02T05:17:57.876Z,79.94
2018-11-02T05:20:25.897Z,79.71
2018-11-02T05:22:53.986Z,79.33
2018-11-02T05:25:22.047Z,79.34
2018-11-02T05:27:50.211Z,79.43
2018-11-02T05:30:18.227Z,79.20
2018-11-02T05:32:46.356Z,78.66
2018-11-02T05:35:14.360Z,78.76
2018-11-02T05:37:42.496Z,78.29
2018-11-02T05:40:10.575Z,78.69
2018-11-02T05:42:38.647Z,78.80
2018-11-02T05:45:07.037Z,78.60
2018-11-02T05:47:35.116Z,78.84
2018-11-02T05:50:03.182Z,77.97
2018-11-02T05:52:31.240Z,78.27
2018-11-02T05:54:59.302Z,77.99
2018-11-02T05:57:27.537Z,78.17
2018-11-02T05:59:55.509Z,77.80
2018-11-02T06:02:23.521Z,77.95
2018-11-02T06:04:51.552Z,78.13
2018-11-02T06:07:19.571Z,77.62
2018-11-02T06:09:47.841Z,77.17
2018-11-02T06:12:15.896Z,77.33
2018-11-02T06:14:43.956Z,77.60
2018-11-02T06:17:12.158Z,77.09
2018-11-02T06:19:40.166Z,77.48
2018-11-02T06:22:08.181Z,77.88
2018-11-02T06:24:38.326Z,79.83
2018-11-02T06:27:06.556Z,81.32
2018-11-02T06:29:34.546Z,82.91
2018-11-02T06:32:02.636Z,83.23
2018-11-02T06:34:30.674Z,84.41
2018-11-02T06:36:58.931Z,84.07
2018-11-02T06:39:26.901Z,84.30
2018-11-02T06:41:54.961Z,84.50
2018-11-02T06:44:23.000Z,85.24
2018-11-02T06:46:51.081Z,85.19
2018-11-02T06:49:19.161Z,85.94
2018-11-02T06:51:47.176Z,85.61
2018-11-02T06:54:15.261Z,85.35
2018-11-02T06:56:43.281Z,85.58
2018-11-02T06:59:11.476Z,85.34
2018-11-02T07:01:39.436Z,85.94
2018-11-02T07:04:07.466Z,85.78
2018-11-02T07:06:35.511Z,85.72
2018-11-02T07:09:04.296Z,86.53
2018-11-02T07:11:32.326Z,85.60
2018-11-02T07:14:00.516Z,85.61
2018-11-02T07:16:28.571Z,86.01
2018-11-02T07:18:56.791Z,86.26
2018-11-02T07:21:24.981Z,86.83
2018-11-02T07:23:53.072Z,86.49
2018-11-02T07:26:21.076Z,86.68
2018-11-02T07:28:49.156Z,86.32
2018-11-02T07:31:17.381Z,86.68
2018-11-02T07:33:45.539Z,86.86
2018-11-02T07:36:13.597Z,87.13
2018-11-02T07:38:47.726Z,86.76
2018-11-02T07:41:15.826Z,86.11
2018-11-02T07:43:43.876Z,85.90
2018-11-02T07:46:11.896Z,85.54
2018-11-02T07:48:39.962Z,85.03
2018-11-02T07:51:08.091Z,84.33
2018-11-02T07:53:36.299Z,85.31
2018-11-02T07:56:04.631Z,85.34
2018-11-02T07:58:33.341Z,85.33
2018-11-02T08:01:02.119Z,85.45
2018-11-02T08:03:30.341Z,85.65
2018-11-02T08:05:58.603Z,84.83
2018-11-02T08:08:26.783Z,85.66
2018-11-02T08:10:54.997Z,85.81
2018-11-02T08:13:23.237Z,85.69
2018-11-02T08:15:51.476Z,85.63
2018-11-02T08:18:19.622Z,85.45
2018-11-02T08:20:47.816Z,85.54
2018-11-02T08:23:15.942Z,85.05
2018-11-02T08:25:44.082Z,85.71
2018-11-02T08:28:12.221Z,85.69
2018-11-02T08:30:40.281Z,85.59
2018-11-02T08:33:08.422Z,84.99
2018-11-02T08:35:36.897Z,85.53
2018-11-02T08:38:05.098Z,85.47
2018-11-02T08:40:33.241Z,85.17
2018-11-02T08:43:01.407Z,84.99
2018-11-02T08:45:29.601Z,85.05
2018-11-02T08:47:57.706Z,85.00
2018-11-02T08:50:25.889Z,84.02
2018-11-02T08:52:54.069Z,84.07
2018-11-02T08:55:22.377Z,83.49
2018-11-02T08:57:50.602Z,83.57
2018-11-02T09:00:18.872Z,83.98
2018-11-02T09:02:46.889Z,83.29
2018-11-02T09:05:15.151Z,82.60
2018-11-02T09:07:43.216Z,83.26
2018-11-02T09:10:12.093Z,83.52
2018-11-02T09:12:40.177Z,84.05
2018-11-02T09:15:08.297Z,84.07
2018-11-02T09:17:36.564Z,83.55
2018-11-02T09:20:05.007Z,83.21
2018-11-02T09:22:33.501Z,83.19
2018-11-02T09:25:01.792Z,81.67
2018-11-02T09:27:29.992Z,81.44
2018-11-02T09:29:58.167Z,79.61
2018-11-02T09:32:26.177Z,78.63
2018-11-02T09:34:54.249Z,77.48
2018-11-02T09:37:22.344Z,76.35
2018-11-02T09:39:50.613Z,77.79
2018-11-02T09:42:18.736Z,78.13
2018-11-02T09:44:46.885Z,79.29
2018-11-02T09:47:15.076Z,78.41
2018-11-02T09:49:43.188Z,78.04
2018-11-02T09:52:11.344Z,77.74
2018-11-02T09:54:39.601Z,78.97
2018-11-02T09:57:07.621Z,78.60
2018-11-02T09:59:35.749Z,78.59
2018-11-02T10:02:04.211Z,79.17
2018-11-02T10:04:32.199Z,79.23
2018-11-02T10:07:00.262Z,78.28
2018-11-02T10:09:28.428Z,78.76
2018-11-02T10:11:56.442Z,78.05
2018-11-02T10:14:24.568Z,77.93
2018-11-02T10:16:52.677Z,78.18
2018-11-02T10:19:20.818Z,78.79
2018-11-02T10:21:48.903Z,78.68
2018-11-02T10:24:16.949Z,79.11
2018-11-02T10:26:45.113Z,79.03
2018-11-02T10:29:13.205Z,78.71
2018-11-02T10:31:41.478Z,78.13
2018-11-02T10:34:09.544Z,78.27
2018-11-02T10:36:38.538Z,77.98
2018-11-02T10:39:08.777Z,78.21
2018-11-02T10:41:41.037Z,78.46
2018-11-02T10:44:10.098Z,77.86
2018-11-02T10:46:38.328Z,78.38
2018-11-02T10:49:06.631Z,78.02
2018-11-02T10:51:34.685Z,78.02
2018-11-02T10:54:03.353Z,77.17
2018-11-02T10:56:31.436Z,76.76
2018-11-02T10:58:59.513Z,76.06
2018-11-02T11:01:33.078Z,75.94
2018-11-02T11:04:01.115Z,76.33
2018-11-02T11:06:29.237Z,75.78
2018-11-02T11:08:57.239Z,74.61
2018-11-02T11:11:25.424Z,73.10
2018-11-02T11:13:53.438Z,70.88
2018-11-02T11:16:21.648Z,70.46
2018-11-02T11:18:49.671Z,71.41
2018-11-02T11:21:17.879Z,70.37
2018-11-02T11:23:45.868Z,71.03
2018-11-02T11:26:13.969Z,70.83
2018-11-02T11:28:42.089Z,70.04
2018-11-02T11:31:10.246Z,70.29
2018-11-02T11:33:38.352Z,70.27
2018-11-02T11:36:06.530Z,70.88
2018-11-02T11:38:34.966Z,72.44
2018-11-02T11:41:03.528Z,72.48
2018-11-02T11:43:31.608Z,73.96
2018-11-02T11:45:59.628Z,73.88
2018-11-02T11:48:27.712Z,75.07
2018-11-02T11:50:55.718Z,74.62
2018-11-02T11:53:23.833Z,74.64
2018-11-02T11:55:51.869Z,73.78
2018-11-02T11:58:20.008Z,73.63
2018-11-02T12:00:48.033Z,73.79
2018-11-02T12:03:16.183Z,73.99
2018-11-02T12:05:44.228Z,74.80
2018-11-02T12:08:12.394Z,75.19
2018-11-02T12:10:40.433Z,74.72
2018-11-02T12:13:08.525Z,74.78
2018-11-02T12:15:36.707Z,74.47
2018-11-02T12:18:05.311Z,75.12
2018-11-02T12:20:33.476Z,75.21
2018-11-02T12:23:02.757Z,74.86
2018-11-02T12:25:30.888Z,74.16
2018-11-02T12:27:58.929Z,74.06
2018-11-02T12:30:27.015Z,73.86
2018-11-02T12:32:55.036Z,72.94
2018-11-02T12:35:23.073Z,73.01
2018-11-02T12:37:51.116Z,75.11
2018-11-02T12:40:21.991Z,74.84
2018-11-02T12:42:51.117Z,75.18
2018-11-02T12:45:20.066Z,74.90
2018-11-02T12:47:48.217Z,75.98
2018-11-02T12:50:20.018Z,75.23
2018-11-02T12:52:48.829Z,75.09
2018-11-02T12:55:17.396Z,75.32
2018-11-02T12:57:45.433Z,74.94
2018-11-02T13:00:15.547Z,73.93
2018-11-02T13:02:44.531Z,73.88
2018-11-02T13:05:12.542Z,75.01
2018-11-02T13:07:40.768Z,74.36
2018-11-02T13:10:10.159Z,74.25
2018-11-02T13:12:38.223Z,73.99
2018-11-02T13:15:07.833Z,73.13
2018-11-02T13:17:35.930Z,73.56
2018-11-02T13:20:04.281Z,74.35
2018-11-02T13:22:32.330Z,73.74
2018-11-02T13:25:00.482Z,73.66
2018-11-02T13:27:28.529Z,74.66
2018-11-02T13:29:56.762Z,74.44
2018-11-02T13:32:24.918Z,74.66
2018-11-02T13:34:53.111Z,75.03
2018-11-02T13:37:21.373Z,75.27
2018-11-02T13:39:49.488Z,75.51
2018-11-02T13:42:17.513Z,74.83
2018-11-02T13:44:45.668Z,74.32
2018-11-02T13:47:17.526Z,73.42
2018-11-02T13:49:45.711Z,74.19
2018-11-02T13:52:13.748Z,74.33
2018-11-02T13:54:42.083Z,73.63
2018-11-02T13:57:10.065Z,73.83
2018-11-02T13:59:38.365Z,74.01
2018-11-02T14:02:07.208Z,74.06
2018-11-02T14:04:36.295Z,74.49
2018-11-02T14:07:04.468Z,74.56
2018-11-02T14:09:32.635Z,75.35
2018-11-02T14:12:00.688Z,75.55
2018-11-02T14:14:28.746Z,75.61
2018-11-02T14:16:56.854Z,75.84
2018-11-02T14:19:25.113Z,75.82
2018-11-02T14:21:53.333Z,75.48
2018-11-02T14:24:21.428Z,76.24
2018-11-02T14:26:49.598Z,76.40
2018-11-02T14:29:17.691Z,76.49
2018-11-02T14:31:45.782Z,76.45
2018-11-02T14:34:13.874Z,76.44
2018-11-02T14:36:42.057Z,76.63
2018-11-02T14:39:12.189Z,76.27
2018-11-02T14:41:40.833Z,77.38
2018-11-02T14:44:09.309Z,76.50
2018-11-02T14:46:37.708Z,76.69
2018-11-02T14:49:06.004Z,76.64
2018-11-02T14:51:34.219Z,77.57
2018-11-02T14:54:02.170Z,77.16
2018-11-02T14:56:30.453Z,77.34
2018-11-02T14:58:58.708Z,77.32
2018-11-02T15:01:27.240Z,77.73
2018-11-02T15:03:55.317Z,77.64
2018-11-02T15:06:23.463Z,78.19
2018-11-02T15:08:51.553Z,77.67
2018-11-02T15:11:19.670Z,77.90
2018-11-02T15:13:47.633Z,78.29
2018-11-02T15:16:15.684Z,78.79
2018-11-02T15:18:43.687Z,78.85
2018-11-02T15:21:11.823Z,79.10
2018-11-02T15:23:40.828Z,79.45
2018-11-02T15:26:08.928Z,79.24
2018-11-02T15:28:36.999Z,80.10
2018-11-02T15:31:05.545Z,80.14
2018-11-02T15:33:33.568Z,79.99
2018-11-02T15:36:01.729Z,79.77
2018-11-02T15:38:29.793Z,80.55
2018-11-02T15:40:57.921Z,79.91
2018-11-02T15:43:25.921Z,79.41
2018-11-02T15:45:54.101Z,80.03
2018-11-02T15:48:22.093Z,80.06
2018-11-02T15:50:50.148Z,80.54
2018-11-02T15:53:18.200Z,80.92
2018-11-02T15:55:46.349Z,80.74
2018-11-02T15:58:14.389Z,79.08
2018-11-02T16:00:42.561Z,77.44
2018-11-02T16:03:10.469Z,78.06
2018-11-02T16:05:38.481Z,77.09
2018-11-02T16:08:06.559Z,77.30
2018-11-02T16:10:34.538Z,77.63
2018-11-02T16:13:02.564Z,76.83
2018-11-02T16:15:30.508Z,77.21
2018-11-02T16:17:58.599Z,78.02
2018-11-02T16:20:26.701Z,77.57
2018-11-02T16:22:54.833Z,78.09
2018-11-02T16:25:22.817Z,78.52
2018-11-02T16:27:50.916Z,78.56
2018-11-02T16:30:18.899Z,78.61
2018-11-02T16:32:46.919Z,79.10
2018-11-02T16:35:14.904Z,79.56
2018-11-02T16:37:43.054Z,79.67
2018-11-02T16:40:13.104Z,80.74
2018-11-02T16:42:41.433Z,80.68
2018-11-02T16:45:10.681Z,81.37
2018-11-02T16:47:38.916Z,81.92
2018-11-02T16:50:08.504Z,82.24
2018-11-02T16:52:36.614Z,81.69
2018-11-02T16:55:04.693Z,81.26
2018-11-02T16:57:32.758Z,80.77
2018-11-02T17:00:00.789Z,80.82
2018-11-02T17:02:28.852Z,80.70
2018-11-02T17:04:56.863Z,79.99
2018-11-02T17:07:24.957Z,80.41
2018-11-02T17:09:52.999Z,80.04
2018-11-02T17:12:21.052Z,80.70
2018-11-02T17:14:49.062Z,80.40
2018-11-02T17:17:17.092Z,80.31
2018-11-02T17:19:45.156Z,80.64
2018-11-02T17:22:13.279Z,79.94
2018-11-02T17:24:41.265Z,80.30
2018-11-02T17:27:09.704Z,80.27
2018-11-02T17:29:37.794Z,80.01
2018-11-02T17:32:06.247Z,80.09
2018-11-02T17:34:34.313Z,80.61
2018-11-02T17:37:02.336Z,80.60
2018-11-02T17:39:30.404Z,80.72
2018-11-02T17:41:58.399Z,81.14
2018-11-02T17:44:26.404Z,81.59
2018-11-02T17:46:54.452Z,81.63
2018-11-02T17:49:22.515Z,81.68
2018-11-02T17:51:50.491Z,81.77
2018-11-02T17:54:18.549Z,82.04
2018-11-02T17:56:46.594Z,82.07
2018-11-02T17:59:14.675Z,82.44
2018-11-02T18:01:42.749Z,82.68
2018-11-02T18:04:11.917Z,82.51
2018-11-02T18:06:40.022Z,82.29
2018-11-02T18:09:09.887Z,82.78
2018-11-02T18:11:37.961Z,81.98
2018-11-02T18:14:06.307Z,81.47
2018-11-02T18:16:34.356Z,81.68
2018-11-02T18:19:02.661Z,81.41
2018-11-02T18:21:30.756Z,81.57
2018-11-02T18:23:58.896Z,81.63
2018-11-02T18:26:27.241Z,81.23
2018-11-02T18:28:55.966Z,80.68
2018-11-02T18:31:24.242Z,80.14
2018-11-02T18:33:52.507Z,79.38
2018-11-02T18:36:20.987Z,79.30
2018-11-02T18:38:49.431Z,78.85
2018-11-02T18:41:18.017Z,78.83
2018-11-02T18:43:46.242Z,77.71
2018-11-02T18:46:14.467Z,77.50
2018-11-02T18:48:42.878Z,77.65
2018-11-02T18:51:12.066Z,77.09
2018-11-02T18:53:40.397Z,75.88
2018-11-02T18:56:09.357Z,75.67
2018-11-02T18:58:37.582Z,75.24
2018-11-02T19:01:06.030Z,76.09
2018-11-02T19:03:34.477Z,75.57
2018-11-02T19:06:03.022Z,74.97
2018-11-02T19:08:31.507Z,74.74
2018-11-02T19:11:00.027Z,75.06
2018-11-02T19:13:28.619Z,74.71
2018-11-02T19:15:57.324Z,74.61
2018-11-02T19:18:25.817Z,74.73
2018-11-02T19:20:54.267Z,75.24
2018-11-02T19:23:22.732Z,74.48
2018-11-02T19:25:51.262Z,74.29
2018-11-02T19:28:19.796Z,74.38
2018-11-02T19:30:48.341Z,73.97
2018-11-02T19:33:16.812Z,74.34
2018-11-02T19:35:45.372Z,74.24
2018-11-02T19:38:14.225Z,74.61
2018-11-02T19:40:42.537Z,74.49
2018-11-02T19:43:11.247Z,74.48
2018-11-02T19:45:39.797Z,74.47
2018-11-02T19:48:08.218Z,74.70
2018-11-02T19:50:36.727Z,74.97
2018-11-02T19:53:05.436Z,74.88
2018-11-02T19:55:33.903Z,75.40
2018-11-02T19:58:02.159Z,75.41
2018-11-02T20:00:30.502Z,75.84
2018-11-02T20:02:59.076Z,76.09
2018-11-02T20:05:27.538Z,76.52
2018-11-02T20:07:55.821Z,76.58
2018-11-02T20:10:24.159Z,77.05
2018-11-02T20:12:52.436Z,77.46
2018-11-02T20:15:20.842Z,77.83
2018-11-02T20:17:50.367Z,77.73
2018-11-02T20:20:18.473Z,78.82
2018-11-02T20:22:46.803Z,78.64
2018-11-02T20:25:16.413Z,78.67
2018-11-02T20:27:44.596Z,78.36
2018-11-02T20:30:16.588Z,78.95
2018-11-02T20:32:45.167Z,79.28
2018-11-02T20:35:14.102Z,79.24
2018-11-02T20:37:42.606Z,79.09
2018-11-02T20:40:13.562Z,80.12
2018-11-02T20:42:42.947Z,80.17
2018-11-02T20:45:11.313Z,80.01
2018-11-02T20:47:44.903Z,80.67
2018-11-02T20:50:13.546Z,80.90
2018-11-02T20:52:41.825Z,81.65
2018-11-02T20:55:11.561Z,80.92
2018-11-02T20:57:40.354Z,82.05
2018-11-02T21:00:10.977Z,81.08
2018-11-02T21:02:40.096Z,81.35
2018-11-02T21:05:10.272Z,81.22
2018-11-02T21:07:38.289Z,81.75
2018-11-02T21:10:08.614Z,81.26
2018-11-02T21:12:36.729Z,81.94
2018-11-02T21:15:05.879Z,81.22
2018-11-02T21:17:33.854Z,81.52
2018-11-02T21:20:02.005Z,80.91
2018-11-02T21:22:30.024Z,81.09
2018-11-02T21:24:58.036Z,81.03
2018-11-02T21:27:26.027Z,80.81
2018-11-02T21:29:54.046Z,81.47
2018-11-02T21:32:22.033Z,81.47
2018-11-02T21:34:50.083Z,81.50
2018-11-02T21:37:18.209Z,81.28
2018-11-02T21:39:46.247Z,81.32
2018-11-02T21:42:14.253Z,82.21
2018-11-02T21:44:42.396Z,82.02
2018-11-02T21:47:10.433Z,82.35
2018-11-02T21:49:38.573Z,82.66
2018-11-02T21:52:06.583Z,82.85
2018-11-02T21:54:34.696Z,82.89
2018-11-02T21:57:02.697Z,82.81
2018-11-02T21:59:30.708Z,83.14
2018-11-02T22:01:58.783Z,83.06
2018-11-02T22:04:26.783Z,82.94
2018-11-02T22:06:54.948Z,82.19
2018-11-02T22:09:23.002Z,81.98
2018-11-02T22:11:51.021Z,82.40
2018-11-02T22:14:20.183Z,82.84
2018-11-02T22:16:50.501Z,82.80
2018-11-02T22:19:18.687Z,83.00
2018-11-02T22:21:46.726Z,83.17
2018-11-02T22:24:14.801Z,83.49
2018-11-02T22:26:43.073Z,84.25
2018-11-02T22:29:11.129Z,83.66
2018-11-02T22:31:39.252Z,83.49
2018-11-02T22:34:07.423Z,83.75
2018-11-02T22:36:35.528Z,83.79
2018-11-02T22:39:07.596Z,84.11
2018-11-02T22:41:35.996Z,84.36
2018-11-02T22:44:04.041Z,84.60
2018-11-02T22:46:32.181Z,85.32
2018-11-02T22:49:00.418Z,84.99
2018-11-02T22:51:28.527Z,85.25
2018-11-02T22:53:56.520Z,84.05
2018-11-02T22:56:24.548Z,84.41
2018-11-02T22:58:52.549Z,84.85
2018-11-02T23:01:27.127Z,85.11
2018-11-02T23:03:56.474Z,85.14
2018-11-02T23:06:24.892Z,85.86
2018-11-02T23:08:53.664Z,85.78
2018-11-02T23:11:22.289Z,86.08
2018-11-02T23:13:50.336Z,85.86
2018-11-02T23:16:18.531Z,87.05
2018-11-02T23:18:46.578Z,86.71
2018-11-02T23:21:14.691Z,87.19
2018-11-02T23:23:42.708Z,86.91
2018-11-02T23:26:10.809Z,87.28
2018-11-02T23:28:39.456Z,87.48
2018-11-02T23:31:07.523Z,86.99
2018-11-02T23:33:35.824Z,87.21
2018-11-02T23:36:03.941Z,86.86
2018-11-02T23:38:32.042Z,87.08
2018-11-02T23:41:00.128Z,86.66
2018-11-02T23:43:28.181Z,87.61
2018-11-02T23:45:56.284Z,87.89
2018-11-02T23:48:24.341Z,87.67
2018-11-02T23:50:52.428Z,87.46
2018-11-02T23:53:20.552Z,87.35
2018-11-02T23:55:48.682Z,86.69
2018-11-02T23:58:16.823Z,86.57
